CT1ETE Guimaraes PT current weather conditions

sailwx.info

Wind from 182 at 2 knots gusting 6

Air temperature 18.3° C
Dewpoint 16.3° C

Last reported at 2018-Jul-18 11:53 UTC.
Time now 2018-Jul-18 12:24 UTC

Location: N 41°27' W 008°16'.
View on Google Maps.

See reports from other nearby stations

  
Tides and Currents Weather Stations Pressure Air Temp Water Temp Dewpoint Dewpoint Depression Visibility Wind Speed Wind Dir Waves Ship Positions
date/time (UTC)wind fromknots sea level pressurealtimeterstation pressurevisibilityair tempwater tempwave heightnotes
2018-Jul-18 12:08 209 3 gusting 6 18.3
2018-Jul-18 11:53 182 2 gusting 6 18.3
2018-Jul-18 11:39 186 3 gusting 7 18.3
2018-Jul-18 11:23 186 3 gusting 7 18.3
2018-Jul-18 11:09 232 1 gusting 4 18.3
2018-Jul-18 10:53 232 1 gusting 4 18.3
2018-Jul-18 10:38 227 2 gusting 6 18.3
2018-Jul-18 10:24 130 2 gusting 6 17.8
2018-Jul-18 10:08 130 2 gusting 6 17.8
2018-Jul-18 09:53 130 2 gusting 7 17.8
2018-Jul-18 09:38 243 2 gusting 6 17.2
2018-Jul-18 09:23 136 3 gusting 8 17.2
2018-Jul-18 09:09 109 3 gusting 8 16.7
2018-Jul-18 08:53 109 3 gusting 8 16.7
2018-Jul-18 08:38 114 4 gusting 8 16.7
2018-Jul-18 08:23 147 5 gusting 9 16.7
2018-Jul-18 08:08 147 6 gusting 9 16.7
2018-Jul-18 07:53 078 6 gusting 10 16.7
2018-Jul-18 07:38 062 2 gusting 6 16.1
2018-Jul-18 07:23 090 1 gusting 6 16.1
2018-Jul-18 07:08 115 2 gusting 5 16.1
2018-Jul-18 06:53 140 2 gusting 6 16.1
2018-Jul-18 06:39 151 1 gusting 4 15.6
2018-Jul-18 06:23 211 0 gusting 2 16.1
2018-Jul-18 06:08 151 1 gusting 4 15.6
2018-Jul-18 05:54 123 3 gusting 6 15.6
2018-Jul-18 05:38 123 3 gusting 6 15.6
2018-Jul-18 05:23 101 2 gusting 5 16.1
2018-Jul-18 05:09 229 0 gusting 4 16.1
2018-Jul-18 04:53 229 0 gusting 4 16.1
2018-Jul-18 04:38 223 2 gusting 5 16.7
2018-Jul-18 04:23 215 16.7
2018-Jul-18 04:08 215 16.7
2018-Jul-18 03:53 215 16.7
2018-Jul-18 03:38 216 0 gusting 2 17.2
2018-Jul-18 03:23 219 2 gusting 4 17.2
2018-Jul-18 03:08 094 2 gusting 5 17.2
2018-Jul-18 02:53 161 17.8
2018-Jul-18 02:38 161 17.8
2018-Jul-18 02:23 153 17.8
2018-Jul-18 02:08 153 0 gusting 5 18.3
2018-Jul-18 01:53 092 1 gusting 5 18.3
2018-Jul-18 01:38 229 0 gusting 3 18.3
2018-Jul-18 01:23 208 0 gusting 5 18.3
2018-Jul-18 01:08 091 2 gusting 6 18.3
2018-Jul-18 00:54 096 3 gusting 6 18.3
2018-Jul-18 00:38 096 3 gusting 6 18.3
2018-Jul-18 00:23 069 18.9
2018-Jul-18 00:08 220 18.9
2018-Jul-17 23:53 220 0 gusting 2 19.4
2018-Jul-17 23:38 220 0 gusting 2 19.4
2018-Jul-17 23:23 109 19.4
2018-Jul-17 23:08 121 19.4
2018-Jul-17 22:53 220 20.0
2018-Jul-17 22:38 220 20.0
2018-Jul-17 22:23 221 20.6
2018-Jul-17 22:08 221 0 gusting 3 20.6
2018-Jul-17 21:53 225 20.6
2018-Jul-17 21:38 225 21.1
2018-Jul-17 21:23 209 1 gusting 4 21.7
2018-Jul-17 21:08 209 1 gusting 4 21.7
2018-Jul-17 20:53 223 0 gusting 5 21.7
2018-Jul-17 20:38 217 4 gusting 6 22.2
2018-Jul-17 20:23 219 4 gusting 6 22.8
2018-Jul-17 20:08 212 5 gusting 9 22.8
2018-Jul-17 19:53 219 5 gusting 7 23.3
2018-Jul-17 19:38 211 6 gusting 8 23.9
2018-Jul-17 19:23 236 6 gusting 9 24.4
2018-Jul-17 19:08 229 6 gusting 10 25.0
2018-Jul-17 18:53 231 6 gusting 10 26.1
2018-Jul-17 18:38 252 6 gusting 10 26.7
2018-Jul-17 18:23 277 6 gusting 12 27.8
2018-Jul-17 18:09 256 6 gusting 11 27.8
2018-Jul-17 17:53 256 6 gusting 11 27.8
2018-Jul-17 17:38 284 6 gusting 10 28.3
2018-Jul-17 17:23 238 5 gusting 9 28.3
2018-Jul-17 17:08 292 5 gusting 8 28.3
2018-Jul-17 16:53 292 5 gusting 8 28.3
2018-Jul-17 16:38 288 4 gusting 8 28.9
2018-Jul-17 16:23 277 4 gusting 10 28.9
2018-Jul-17 16:08 259 6 gusting 9 28.9
2018-Jul-17 15:53 225 5 gusting 9 28.9
2018-Jul-17 15:38 273 5 gusting 10 28.3
2018-Jul-17 15:23 262 6 gusting 10 28.3
2018-Jul-17 15:08 262 6 gusting 10 28.3
2018-Jul-17 14:53 283 5 gusting 10 28.3
2018-Jul-17 14:38 318 4 gusting 9 28.3
2018-Jul-17 14:23 318 4 gusting 9 28.3
2018-Jul-17 14:08 267 4 gusting 8 27.8
2018-Jul-17 13:53 237 4 gusting 7 27.8
2018-Jul-17 13:38 271 3 gusting 10 27.2
2018-Jul-17 13:23 237 4 gusting 7 27.8
2018-Jul-17 13:08 251 2 gusting 6 27.2
2018-Jul-17 12:53 315 2 gusting 8 27.2
2018-Jul-17 12:38 238 3 gusting 9 26.1
2018-Jul-17 12:23 244 4 gusting 9 26.1
2018-Jul-17 12:08 244 4 gusting 9 26.1
2018-Jul-17 11:53 295 3 gusting 6 25.0
2018-Jul-17 11:38 236 4 gusting 7 25.6
2018-Jul-17 11:23 295 3 gusting 6 25.0
2018-Jul-17 11:08 226 2 gusting 6 25.0
2018-Jul-17 10:53 175 3 gusting 7 24.4
2018-Jul-17 10:38 226 4 gusting 8 23.9
2018-Jul-17 10:23 302 1 gusting 6 23.9
2018-Jul-17 10:08 302 1 gusting 6 23.9
2018-Jul-17 09:53 252 1 gusting 4 23.3
2018-Jul-17 09:38 262 1 gusting 3 22.2
2018-Jul-17 09:23 263 1 gusting 3 22.2
2018-Jul-17 09:08 240 1 gusting 3 21.7
2018-Jul-17 08:52 277 1 gusting 3 21.1
2018-Jul-17 08:39 239 0 gusting 3 18.9
2018-Jul-17 08:24 341 19.4
2018-Jul-17 08:09 239 0 gusting 3 18.9
2018-Jul-17 07:23 088 17.8
2018-Jul-17 07:07 034 18.9
2018-Jul-17 06:52 088 17.8
2018-Jul-17 06:37 088 0 gusting 2 17.2
2018-Jul-17 06:22 088 16.1
2018-Jul-17 06:07 088 15.6
2018-Jul-17 05:52 094 15.6
2018-Jul-17 05:37 094 15.6
2018-Jul-17 05:22 094 15.0
2018-Jul-17 05:07 094 15.6
2018-Jul-17 04:52 094 15.0
2018-Jul-17 04:37 094 0 gusting 2 15.0
2018-Jul-17 04:23 079 1 gusting 3 15.6
2018-Jul-17 04:07 088 2 gusting 3 15.6
2018-Jul-17 03:52 079 1 gusting 3 15.6
2018-Jul-17 03:37 101 1 gusting 3 15.6
2018-Jul-17 03:22 205 15.6
2018-Jul-17 03:07 206 15.6
2018-Jul-17 02:52 206 15.6
2018-Jul-17 02:37 206 15.6
2018-Jul-17 02:22 206 16.1
2018-Jul-17 02:07 082 16.1
2018-Jul-17 01:52 079 16.1
2018-Jul-17 01:37 079 16.1
2018-Jul-17 01:23 079 16.1
2018-Jul-17 01:09 079 16.1
2018-Jul-17 00:52 079 16.1
2018-Jul-17 00:37 079 16.1
2018-Jul-17 00:22 084 16.7
2018-Jul-17 00:07 084 16.7
2018-Jul-16 23:52 105 16.7
2018-Jul-16 23:37 105 16.7
2018-Jul-16 23:22 140 17.2
2018-Jul-16 23:07 230 17.2
2018-Jul-16 22:52 230 17.2
2018-Jul-16 22:37 230 17.2
2018-Jul-16 22:22 230 17.2
2018-Jul-16 22:07 230 17.8
2018-Jul-16 21:52 220 18.3
2018-Jul-16 21:37 224 0 gusting 3 17.8
2018-Jul-16 21:23 220 18.3
2018-Jul-16 21:07 220 18.3
2018-Jul-16 20:52 241 1 gusting 3 18.3
2018-Jul-16 20:37 217 2 gusting 5 18.3
2018-Jul-16 20:22 223 3 gusting 6 18.9
2018-Jul-16 20:07 215 4 gusting 7 18.9
2018-Jul-16 19:52 234 5 gusting 9 19.4
2018-Jul-16 19:37 229 7 gusting 12 20.6
2018-Jul-16 19:22 229 7 gusting 12 20.6
2018-Jul-16 19:07 229 7 gusting 12 21.1
2018-Jul-16 18:52 241 6 gusting 10 21.1
2018-Jul-16 18:37 262 7 gusting 13 21.7
2018-Jul-16 18:22 213 9 gusting 14 22.2
2018-Jul-16 18:07 259 8 gusting 14 22.8
2018-Jul-16 17:52 223 8 gusting 14 23.3
2018-Jul-16 17:37 237 6 gusting 13 23.3
2018-Jul-16 17:22 234 7 gusting 14 23.3
2018-Jul-16 17:07 249 7 gusting 13 23.9
2018-Jul-16 16:52 240 6 gusting 12 23.9
2018-Jul-16 16:37 272 6 gusting 12 24.4
2018-Jul-16 16:22 252 6 gusting 12 24.4
2018-Jul-16 16:07 292 6 gusting 12 23.9
2018-Jul-16 15:52 265 6 gusting 13 23.3
2018-Jul-16 15:37 190 7 gusting 13 24.4
2018-Jul-16 15:22 217 6 gusting 12 24.4
2018-Jul-16 15:07 232 6 gusting 12 24.4
2018-Jul-16 14:53 279 6 gusting 11 24.4
2018-Jul-16 14:37 261 5 gusting 10 23.9
2018-Jul-16 14:22 292 6 gusting 10 25.0
2018-Jul-16 14:07 279 6 gusting 11 24.4
2018-Jul-16 13:52 254 6 gusting 13 24.4
2018-Jul-16 13:37 252 5 gusting 10 23.9
2018-Jul-16 13:22 252 5 gusting 10 23.9
2018-Jul-16 13:07 232 3 gusting 10 23.3
2018-Jul-16 12:52 269 6 gusting 10 23.3
2018-Jul-16 12:37 330 4 gusting 10 23.3
2018-Jul-16 12:22 288 5 gusting 11 22.8
2018-Jul-16 12:07 223 6 gusting 11 22.2